Time;durP1;ratioP1;P1;durP2;ratioP2;P2;SDS_P1;SDS_P2;PMS_P1;PMS_P2;Temp;Humidity;BMP_temperature;BMP_pressure;BME280_temperature;BME280_humidity;BME280_pressure;Samples;Min_cycle;Max_cycle;Signal;HPM_P1;HPM_P2
2023/11/28 00:01:37;;;;;;;5.20;4.80;;;17.80;66.00;;;;;;4971693;28;20055;-76
2023/11/28 00:04:02;;;;;;;5.72;5.13;;;17.90;66.10;;;;;;4950357;28;20101;-76
2023/11/28 00:06:28;;;;;;;4.95;4.55;;;17.80;66.10;;;;;;4967663;28;20647;-76
2023/11/28 00:08:53;;;;;;;5.40;5.00;;;17.80;66.20;;;;;;4968801;28;20042;-76
2023/11/28 00:11:20;;;;;;;4.70;4.40;;;17.80;66.30;;;;;;4969054;28;20039;-76
2023/11/28 00:13:46;;;;;;;5.07;4.72;;;17.80;66.40;;;;;;4968131;28;20035;-76
2023/11/28 00:16:12;;;;;;;4.90;4.50;;;17.80;67.30;;;;;;4967816;28;20041;-76
2023/11/28 00:18:37;;;;;;;4.88;4.45;;;17.70;66.50;;;;;;4965941;28;20423;-75
2023/11/28 00:21:03;;;;;;;4.88;4.55;;;17.70;66.60;;;;;;4969277;28;20047;-76
2023/11/28 00:23:28;;;;;;;4.70;4.40;;;17.70;66.60;;;;;;4969439;28;20039;-77
2023/11/28 00:25:54;;;;;;;4.03;3.72;;;17.70;67.40;;;;;;4970168;28;20513;-76
2023/11/28 00:28:20;;;;;;;5.10;4.70;;;17.70;66.70;;;;;;4965335;28;20031;-76
2023/11/28 00:30:45;;;;;;;4.30;4.00;;;17.60;66.70;;;;;;4962206;28;20051;-76
2023/11/28 00:33:11;;;;;;;4.57;4.18;;;17.60;66.80;;;;;;4967214;28;20070;-76
2023/11/28 00:35:38;;;;;;;4.45;4.10;;;17.60;66.80;;;;;;4983773;28;20035;-76
2023/11/28 00:38:04;;;;;;;4.53;4.20;;;17.60;66.80;;;;;;4965525;28;20405;-76
2023/11/28 00:40:31;;;;;;;4.40;4.10;;;17.60;66.90;;;;;;4969629;28;20042;-76
2023/11/28 00:42:58;;;;;;;3.88;3.60;;;17.60;66.90;;;;;;4966526;28;20053;-76
2023/11/28 00:45:25;;;;;;;3.90;3.70;;;17.50;67.70;;;;;;4950503;28;20053;-76
2023/11/28 00:47:51;;;;;;;4.05;3.75;;;17.50;66.90;;;;;;4953763;28;20035;-76
2023/11/28 00:50:18;;;;;;;3.90;3.60;;;17.50;67.10;;;;;;4967044;28;20492;-75
2023/11/28 00:52:44;;;;;;;4.03;3.72;;;17.50;67.00;;;;;;4968249;28;20058;-75
2023/11/28 00:55:10;;;;;;;3.70;3.47;;;17.50;67.10;;;;;;4968099;28;20050;-75
2023/11/28 00:57:35;;;;;;;3.63;3.42;;;17.50;67.10;;;;;;4966170;28;20046;-76
2023/11/28 01:00:01;;;;;;;3.85;3.58;;;17.50;67.20;;;;;;4968569;28;20057;-77
2023/11/28 01:02:27;;;;;;;3.15;2.95;;;17.50;67.10;;;;;;4968952;28;20538;-76
2023/11/28 01:04:53;;;;;;;3.75;3.55;;;17.40;67.10;;;;;;4952167;28;20035;-76
2023/11/28 01:07:18;;;;;;;3.53;3.22;;;17.40;67.10;;;;;;4968670;28;20055;-76
2023/11/28 01:09:44;;;;;;;3.72;3.53;;;17.40;67.10;;;;;;4949776;28;20031;-75
2023/11/28 01:12:10;;;;;;;4.00;3.70;;;17.40;67.10;;;;;;4967124;28;20050;-75
2023/11/28 01:14:36;;;;;;;4.03;3.72;;;17.40;67.20;;;;;;4966300;28;20106;-76
2023/11/28 01:17:06;;;;;;;3.30;3.10;;;17.40;67.20;;;;;;4967384;28;20532;-76
2023/11/28 01:19:34;;;;;;;3.70;3.40;;;17.40;67.20;;;;;;4966444;28;20587;-76
2023/11/28 01:22:03;;;;;;;3.38;3.13;;;17.40;67.20;;;;;;4967604;28;20062;-76
2023/11/28 01:24:28;;;;;;;3.05;2.85;;;17.40;67.30;;;;;;4950912;28;20061;-76
2023/11/28 01:26:54;;;;;;;3.13;2.92;;;17.40;67.20;;;;;;4967972;28;20421;-76
2023/11/28 01:29:19;;;;;;;3.40;3.10;;;17.40;67.20;;;;;;4965682;28;20058;-76
2023/11/28 01:31:45;;;;;;;2.90;2.70;;;17.40;67.20;;;;;;4960004;28;20085;-76
2023/11/28 01:34:11;;;;;;;3.20;3.00;;;17.40;67.20;;;;;;4968446;28;20386;-75
2023/11/28 01:36:41;;;;;;;2.92;2.72;;;17.30;67.20;;;;;;4947161;28;20105;-76
2023/11/28 01:39:07;;;;;;;2.80;2.60;;;17.30;67.20;;;;;;4960258;28;20043;-76
2023/11/28 01:41:34;;;;;;;3.20;3.00;;;17.30;67.20;;;;;;4965932;28;20513;-76
2023/11/28 01:44:06;;;;;;;2.90;2.70;;;17.30;67.30;;;;;;4966555;28;20047;-76
2023/11/28 01:46:34;;;;;;;2.80;2.60;;;17.30;67.20;;;;;;4966181;28;20047;-77
2023/11/28 01:48:59;;;;;;;2.80;2.60;;;17.30;67.30;;;;;;4970784;28;20130;-75
2023/11/28 01:51:25;;;;;;;2.65;2.45;;;17.30;67.30;;;;;;4965606;28;20885;-76
2023/11/28 01:53:54;;;;;;;2.58;2.38;;;17.30;67.30;;;;;;4965662;28;20034;-76
2023/11/28 01:56:20;;;;;;;2.53;2.42;;;17.30;67.40;;;;;;4966099;28;20121;-76
2023/11/28 01:58:45;;;;;;;3.00;2.80;;;17.30;67.40;;;;;;4966940;28;20061;-76
2023/11/28 02:01:11;;;;;;;2.83;2.63;;;17.30;67.40;;;;;;4966951;28;20492;-76
2023/11/28 02:03:36;;;;;;;2.38;2.22;;;17.30;67.40;;;;;;4964145;28;20402;-76
2023/11/28 02:06:03;;;;;;;3.00;2.80;;;17.30;68.20;;;;;;4950424;28;20050;-76
2023/11/28 02:08:28;;;;;;;2.72;2.53;;;17.20;67.50;;;;;;4966749;28;20058;-77
2023/11/28 02:10:54;;;;;;;2.70;2.50;;;17.20;67.40;;;;;;4967046;28;20049;-76
2023/11/28 02:13:19;;;;;;;2.50;2.33;;;17.20;67.40;;;;;;4948413;28;20039;-76
2023/11/28 02:15:45;;;;;;;2.45;2.25;;;17.20;67.50;;;;;;4963936;28;20066;-76
2023/11/28 02:18:12;;;;;;;2.42;2.33;;;17.20;67.50;;;;;;4965823;28;20097;-76
2023/11/28 02:20:38;;;;;;;2.47;2.28;;;17.20;67.50;;;;;;4946819;28;20046;-77
2023/11/28 02:23:04;;;;;;;2.20;2.10;;;17.20;67.50;;;;;;4962428;28;20106;-77
2023/11/28 02:25:36;;;;;;;2.92;2.72;;;17.20;67.50;;;;;;4963295;28;20671;-76
2023/11/28 02:28:02;;;;;;;2.25;2.15;;;17.20;67.50;;;;;;4965821;28;20039;-75
2023/11/28 02:30:28;;;;;;;2.08;1.98;;;17.20;67.60;;;;;;4965055;28;20052;-78
2023/11/28 02:32:53;;;;;;;2.20;2.10;;;17.20;67.50;;;;;;4966276;28;20402;-76
2023/11/28 02:35:19;;;;;;;2.00;1.90;;;17.20;67.50;;;;;;4967263;28;20531;-76
2023/11/28 02:37:44;;;;;;;1.92;1.83;;;17.10;67.60;;;;;;4965206;28;20054;-75
2023/11/28 02:40:10;;;;;;;3.72;2.28;;;17.10;68.40;;;;;;4966112;28;20039;-76
2023/11/28 02:42:35;;;;;;;2.00;1.90;;;17.10;67.60;;;;;;4965365;28;20047;-76
2023/11/28 02:45:02;;;;;;;2.28;2.17;;;17.10;67.60;;;;;;4967841;28;20070;-75
2023/11/28 02:47:27;;;;;;;2.13;2.03;;;17.10;67.60;;;;;;4982005;28;20121;-76
2023/11/28 02:49:53;;;;;;;2.00;1.90;;;17.10;67.70;;;;;;4965815;28;20086;-76
2023/11/28 02:52:19;;;;;;;2.00;1.90;;;17.10;67.60;;;;;;4968881;28;20043;-76
2023/11/28 02:54:44;;;;;;;1.80;1.70;;;17.10;67.70;;;;;;4969580;28;20055;-76
2023/11/28 02:57:10;;;;;;;1.98;1.88;;;17.10;67.70;;;;;;4968975;28;20043;-76
2023/11/28 02:59:35;;;;;;;2.05;1.95;;;17.10;67.70;;;;;;4968796;28;20147;-76
2023/11/28 03:02:01;;;;;;;2.20;2.00;;;17.10;67.70;;;;;;4951604;28;20074;-76
2023/11/28 03:04:27;;;;;;;2.20;2.00;;;17.10;67.70;;;;;;4970063;28;20042;-76
2023/11/28 03:06:52;;;;;;;2.10;1.98;;;17.10;67.70;;;;;;4969633;28;20051;-76
2023/11/28 03:09:18;;;;;;;2.00;1.90;;;17.10;67.70;;;;;;4969086;28;20512;-76
2023/11/28 03:11:44;;;;;;;2.30;2.17;;;17.10;67.80;;;;;;4965232;28;20031;-76
2023/11/28 03:14:09;;;;;;;1.80;1.70;;;17.00;67.80;;;;;;4968651;28;20561;-76
2023/11/28 03:16:35;;;;;;;1.70;1.60;;;17.00;67.70;;;;;;4969567;28;20077;-76
2023/11/28 03:19:00;;;;;;;1.95;1.85;;;17.10;67.80;;;;;;4967262;28;20046;-76
2023/11/28 03:21:26;;;;;;;2.20;2.00;;;17.00;67.80;;;;;;4970333;28;20081;-75
2023/11/28 03:23:51;;;;;;;1.75;1.65;;;17.00;67.80;;;;;;4964599;28;20078;-75
2023/11/28 03:26:17;;;;;;;1.90;1.80;;;17.10;67.80;;;;;;4983079;28;20050;-75
2023/11/28 03:28:42;;;;;;;1.85;1.75;;;17.00;67.80;;;;;;4983892;28;20047;-76
2023/11/28 03:31:08;;;;;;;1.83;1.70;;;17.00;67.80;;;;;;4966960;28;20055;-76
2023/11/28 03:33:34;;;;;;;2.00;1.90;;;17.00;67.80;;;;;;4968669;28;20057;-77
2023/11/28 03:35:59;;;;;;;1.80;1.70;;;17.00;67.80;;;;;;4970797;28;20034;-76
2023/11/28 03:38:25;;;;;;;2.10;1.90;;;17.00;67.80;;;;;;4968990;28;20099;-76
2023/11/28 03:40:50;;;;;;;1.73;1.63;;;17.00;68.60;;;;;;4968759;28;20035;-76
2023/11/28 03:43:16;;;;;;;1.60;1.50;;;17.00;67.80;;;;;;4968641;28;20473;-76
2023/11/28 03:45:41;;;;;;;1.52;1.42;;;17.00;67.80;;;;;;4952479;28;20123;-76
2023/11/28 03:48:07;;;;;;;1.75;1.65;;;17.00;67.80;;;;;;4966864;28;20054;-76
2023/11/28 03:50:33;;;;;;;1.70;1.60;;;17.00;67.80;;;;;;4965687;28;20034;-77
2023/11/28 03:52:58;;;;;;;1.60;1.50;;;17.00;67.80;;;;;;4969333;28;20155;-76
2023/11/28 03:55:24;;;;;;;1.83;1.70;;;17.00;67.80;;;;;;4967686;28;20042;-76
2023/11/28 03:57:50;;;;;;;1.25;1.15;;;17.00;67.80;;;;;;4966762;28;20039;-76
2023/11/28 04:00:16;;;;;;;1.50;1.40;;;17.00;67.80;;;;;;4968018;28;20078;-75
2023/11/28 04:02:41;;;;;;;1.75;1.65;;;16.90;68.00;;;;;;4968058;28;20130;-76
2023/11/28 04:05:08;;;;;;;1.60;1.50;;;17.00;67.80;;;;;;4966449;28;20050;-75
2023/11/28 04:07:34;;;;;;;1.75;1.65;;;17.00;67.90;;;;;;4968446;28;20031;-76
2023/11/28 04:10:00;;;;;;;1.60;1.50;;;17.00;67.90;;;;;;4968840;28;20069;-75
2023/11/28 04:12:26;;;;;;;1.50;1.40;;;17.00;68.70;;;;;;4965595;28;20043;-75
2023/11/28 04:14:52;;;;;;;1.40;1.30;;;16.90;67.80;;;;;;4965708;28;20047;-75
2023/11/28 04:17:17;;;;;;;2.28;1.40;;;17.00;67.80;;;;;;4968757;28;20058;-75
2023/11/28 04:19:43;;;;;;;1.58;1.48;;;16.90;67.80;;;;;;4969067;28;20574;-76
2023/11/28 04:22:10;;;;;;;1.50;1.40;;;17.00;67.90;;;;;;4967385;28;20058;-76
2023/11/28 04:24:35;;;;;;;1.80;1.70;;;17.00;67.80;;;;;;4966241;28;20062;-76
2023/11/28 04:27:01;;;;;;;1.50;1.40;;;17.00;67.80;;;;;;4968472;28;20109;-75
2023/11/28 04:29:27;;;;;;;1.27;1.20;;;16.90;67.80;;;;;;4969395;28;20484;-75
2023/11/28 04:31:52;;;;;;;1.30;1.20;;;17.00;67.90;;;;;;4969242;28;20038;-75
2023/11/28 04:34:18;;;;;;;1.30;1.20;;;16.90;68.00;;;;;;4965381;28;20050;-75
2023/11/28 04:36:43;;;;;;;1.50;1.40;;;16.90;68.50;;;;;;4963530;28;20042;-75
2023/11/28 04:39:10;;;;;;;1.50;1.40;;;16.90;68.50;;;;;;4966150;28;20039;-76
2023/11/28 04:41:36;;;;;;;1.20;1.20;;;16.90;68.60;;;;;;4967443;28;20402;-77
2023/11/28 04:44:01;;;;;;;1.38;1.27;;;16.90;68.70;;;;;;4967857;28;20528;-76
2023/11/28 04:46:27;;;;;;;1.30;1.20;;;17.00;68.80;;;;;;4969608;28;20043;-76
2023/11/28 04:48:52;;;;;;;1.10;1.05;;;16.90;68.80;;;;;;4966880;28;20062;-76
2023/11/28 04:51:18;;;;;;;1.30;1.20;;;16.90;68.80;;;;;;4968099;28;20049;-75
2023/11/28 04:53:44;;;;;;;1.55;1.45;;;16.90;68.80;;;;;;4967338;28;20109;-77
2023/11/28 04:56:10;;;;;;;1.45;1.35;;;16.90;68.80;;;;;;4968503;28;20560;-76
2023/11/28 04:58:35;;;;;;;1.08;0.93;;;16.90;68.80;;;;;;4968564;28;20042;-76
2023/11/28 05:01:04;;;;;;;1.20;1.10;;;16.90;68.80;;;;;;4963740;28;20560;-75
2023/11/28 05:03:30;;;;;;;0.88;0.88;;;16.90;68.80;;;;;;4965620;28;20042;-75
2023/11/28 05:05:55;;;;;;;1.25;1.15;;;16.90;68.80;;;;;;4969021;28;20081;-76
2023/11/28 05:08:21;;;;;;;0.90;0.90;;;16.90;68.80;;;;;;4965450;28;20509;-76
2023/11/28 05:10:46;;;;;;;0.90;0.90;;;16.90;68.70;;;;;;4955199;28;20505;-76
2023/11/28 05:13:12;;;;;;;1.05;1.05;;;17.00;68.80;;;;;;4966898;28;20050;-76
2023/11/28 05:15:38;;;;;;;1.63;1.20;;;16.90;68.80;;;;;;4948222;28;20047;-77
2023/11/28 05:18:03;;;;;;;1.27;1.10;;;16.90;68.60;;;;;;4964043;28;20061;-76
2023/11/28 05:20:29;;;;;;;1.33;1.23;;;16.90;68.80;;;;;;4963784;28;20134;-76
2023/11/28 05:22:56;;;;;;;2.75;1.27;;;16.90;68.80;;;;;;4960635;28;20034;-76
2023/11/28 05:25:21;;;;;;;1.00;1.00;;;16.90;68.80;;;;;;4961740;28;20049;-76
2023/11/28 05:27:47;;;;;;;1.15;1.00;;;16.90;68.90;;;;;;4962591;28;20042;-76
2023/11/28 05:30:13;;;;;;;0.90;0.90;;;16.90;68.80;;;;;;4962132;28;20051;-76
2023/11/28 05:32:38;;;;;;;1.15;1.05;;;16.90;69.20;;;;;;4962144;28;20081;-76
2023/11/28 05:35:05;;;;;;;0.82;0.82;;;16.90;68.90;;;;;;4965515;28;20133;-76
2023/11/28 05:37:30;;;;;;;0.98;0.98;;;16.80;68.80;;;;;;4949319;28;20097;-76
2023/11/28 05:39:58;;;;;;;1.10;1.00;;;16.80;68.80;;;;;;4963239;28;20034;-76
2023/11/28 05:42:23;;;;;;;1.13;1.10;;;16.80;68.80;;;;;;4964143;28;20127;-76
2023/11/28 05:44:49;;;;;;;1.42;1.33;;;16.80;68.90;;;;;;4961829;28;20124;-76
2023/11/28 05:47:14;;;;;;;0.90;0.90;;;16.80;69.60;;;;;;4964545;28;20039;-76
2023/11/28 05:49:40;;;;;;;1.00;1.00;;;16.80;68.80;;;;;;4967567;28;20035;-77
2023/11/28 05:52:06;;;;;;;1.00;1.00;;;16.80;68.80;;;;;;4959171;28;20051;-76
2023/11/28 05:54:32;;;;;;;0.90;0.90;;;16.80;69.50;;;;;;4962763;28;20050;-76
2023/11/28 05:56:57;;;;;;;1.10;1.05;;;16.80;68.60;;;;;;4966655;28;20058;-76
2023/11/28 05:59:23;;;;;;;0.82;0.80;;;16.80;68.70;;;;;;4965949;28;20053;-76
2023/11/28 06:01:59;;;;;;;1.00;1.00;;;16.80;68.70;;;;;;4967284;28;20047;-76
2023/11/28 06:04:25;;;;;;;0.90;0.90;;;16.80;68.80;;;;;;4962217;28;20043;-76
2023/11/28 06:06:50;;;;;;;0.95;0.95;;;16.80;68.80;;;;;;4962966;28;20051;-76
2023/11/28 06:09:16;;;;;;;1.00;0.77;;;16.70;68.60;;;;;;4965437;28;20046;-75
2023/11/28 06:11:41;;;;;;;0.65;0.65;;;16.80;68.60;;;;;;4965271;28;20125;-76
2023/11/28 06:14:07;;;;;;;0.80;0.80;;;16.70;68.40;;;;;;4967063;28;20146;-75
2023/11/28 06:16:32;;;;;;;0.80;0.80;;;16.70;68.70;;;;;;4965567;28;20461;-75
2023/11/28 06:18:58;;;;;;;0.80;0.80;;;16.70;68.70;;;;;;4966323;28;20472;-74
2023/11/28 06:21:24;;;;;;;0.75;0.75;;;16.70;68.70;;;;;;4964097;28;20134;-75
2023/11/28 06:23:49;;;;;;;0.80;0.80;;;16.80;68.60;;;;;;4963697;28;20042;-76
2023/11/28 06:26:15;;;;;;;1.38;1.20;;;16.80;68.30;;;;;;4964328;28;20509;-76
2023/11/28 06:28:40;;;;;;;0.90;0.73;;;16.70;68.20;;;;;;4967543;28;20463;-76
2023/11/28 06:31:06;;;;;;;0.93;0.93;;;16.70;68.60;;;;;;4965391;28;20038;-76
2023/11/28 06:33:32;;;;;;;1.17;0.70;;;16.70;68.00;;;;;;4962784;28;20145;-75
2023/11/28 06:35:57;;;;;;;0.75;0.75;;;16.70;68.30;;;;;;4961544;28;20532;-76
2023/11/28 06:38:23;;;;;;;0.63;0.63;;;16.70;68.30;;;;;;4958169;28;20047;-76
2023/11/28 06:40:49;;;;;;;0.68;0.68;;;16.70;68.50;;;;;;4963606;28;20046;-77
2023/11/28 06:43:15;;;;;;;1.95;0.78;;;16.70;68.70;;;;;;4619088;28;10001238;-76
2023/11/28 06:45:42;;;;;;;0.80;0.80;;;16.70;68.30;;;;;;4962849;28;20804;-75
2023/11/28 06:48:08;;;;;;;0.80;0.43;;;16.70;67.90;;;;;;4962183;28;20035;-77
2023/11/28 06:50:33;;;;;;;1.10;1.00;;;16.70;68.20;;;;;;4603676;28;9999656;-75
2023/11/28 06:52:59;;;;;;;1.02;0.93;;;16.70;67.60;;;;;;4960825;28;20141;-76
2023/11/28 06:55:24;;;;;;;1.33;1.00;;;16.70;68.80;;;;;;4958617;28;20496;-75
2023/11/28 06:57:50;;;;;;;1.92;0.80;;;16.70;69.80;;;;;;4956797;28;20047;-76
2023/11/28 07:00:16;;;;;;;0.80;0.80;;;16.70;68.70;;;;;;4960705;28;20043;-75
2023/11/28 07:02:42;;;;;;;0.77;0.77;;;16.70;68.60;;;;;;4943425;28;20108;-76
2023/11/28 07:05:08;;;;;;;0.90;0.90;;;16.70;68.30;;;;;;4961622;28;20701;-76
2023/11/28 07:07:37;;;;;;;1.92;0.80;;;16.70;68.00;;;;;;4959215;28;20031;-77
2023/11/28 07:10:21;;;;;;;2.53;0.98;;;16.70;68.30;;;;;;4959438;28;20059;-77
2023/11/28 07:12:46;;;;;;;0.98;0.80;;;16.70;67.90;;;;;;4960030;28;20047;-77
2023/11/28 07:15:13;;;;;;;1.40;0.65;;;16.70;68.30;;;;;;4960225;28;20697;-78
2023/11/28 07:17:39;;;;;;;0.93;0.80;;;16.70;68.00;;;;;;4960104;28;20038;-78
2023/11/28 07:20:06;;;;;;;3.08;0.77;;;16.70;67.80;;;;;;4959310;28;20116;-78
2023/11/28 07:22:32;;;;;;;0.95;0.73;;;16.70;67.70;;;;;;4974649;28;20057;-78
2023/11/28 07:24:58;;;;;;;0.93;0.63;;;16.70;67.70;;;;;;4961650;28;20047;-78
2023/11/28 07:27:23;;;;;;;1.70;0.60;;;16.70;67.70;;;;;;4961952;28;20150;-78
2023/11/28 07:29:49;;;;;;;2.65;1.17;;;16.70;67.70;;;;;;4952381;28;20038;-78
2023/11/28 07:32:14;;;;;;;1.50;0.70;;;16.70;67.80;;;;;;4963060;28;20059;-77
2023/11/28 07:34:40;;;;;;;1.67;0.60;;;16.70;67.80;;;;;;4962182;28;20820;-77
2023/11/28 07:37:06;;;;;;;1.40;1.00;;;16.70;67.60;;;;;;4957483;28;20078;-77
2023/11/28 07:39:32;;;;;;;0.80;0.73;;;16.70;67.50;;;;;;4976700;28;20122;-78
2023/11/28 07:41:58;;;;;;;1.15;0.82;;;16.70;67.90;;;;;;4947839;28;20046;-78
2023/11/28 07:44:24;;;;;;;0.73;0.57;;;16.70;67.70;;;;;;4964421;28;20053;-78
2023/11/28 07:46:50;;;;;;;0.63;0.50;;;16.70;67.80;;;;;;4966617;28;20031;-78
2023/11/28 07:49:15;;;;;;;0.80;0.70;;;16.70;67.80;;;;;;4962503;28;20521;-78
2023/11/28 07:51:41;;;;;;;5.70;0.90;;;16.70;68.60;;;;;;4927736;28;21579;-78
2023/11/28 07:54:06;;;;;;;2.15;0.88;;;16.70;69.30;;;;;;4965639;28;20043;-77
2023/11/28 07:56:33;;;;;;;0.85;0.82;;;16.70;69.00;;;;;;4968070;28;20134;-78
2023/11/28 07:58:59;;;;;;;1.00;0.77;;;16.70;68.60;;;;;;4965137;28;20046;-78
2023/11/28 08:01:24;;;;;;;0.88;0.88;;;16.60;69.00;;;;;;4969061;28;20051;-77
2023/11/28 08:03:50;;;;;;;3.33;0.77;;;16.60;68.90;;;;;;4967420;28;20507;-78
2023/11/28 08:06:18;;;;;;;1.13;0.68;;;16.60;69.00;;;;;;4968558;28;20070;-78
2023/11/28 08:08:47;;;;;;;1.33;0.80;;;16.60;69.00;;;;;;4968423;28;20122;-77
2023/11/28 08:11:13;;;;;;;0.70;0.70;;;16.60;69.20;;;;;;4967957;28;20078;-78
2023/11/28 08:13:39;;;;;;;3.20;0.70;;;16.60;69.20;;;;;;4969768;28;20069;-77
2023/11/28 08:16:05;;;;;;;1.10;0.70;;;16.60;69.20;;;;;;4967240;28;20042;-77
2023/11/28 08:18:31;;;;;;;5.57;1.27;;;16.60;69.20;;;;;;4967239;28;20538;-77
2023/11/28 08:20:56;;;;;;;1.50;0.60;;;16.60;69.20;;;;;;4963815;28;20043;-78
2023/11/28 08:23:22;;;;;;;2.80;0.93;;;16.60;69.30;;;;;;4968226;28;20505;-77
2023/11/28 08:25:49;;;;;;;2.63;0.77;;;16.60;69.20;;;;;;4968311;28;20042;-77
2023/11/28 08:28:15;;;;;;;0.70;0.70;;;16.60;70.00;;;;;;4966216;28;20386;-77
2023/11/28 08:30:40;;;;;;;3.33;0.55;;;16.60;69.30;;;;;;4970970;28;20485;-76
2023/11/28 08:33:06;;;;;;;1.77;0.90;;;16.50;69.30;;;;;;4989337;28;20684;-77
2023/11/28 08:35:31;;;;;;;1.00;0.80;;;16.60;69.30;;;;;;4971439;28;20053;-77
2023/11/28 08:37:57;;;;;;;1.30;0.60;;;16.50;69.30;;;;;;4968019;28;20422;-77
2023/11/28 08:40:23;;;;;;;0.50;0.50;;;16.50;69.30;;;;;;4967472;28;20509;-77
2023/11/28 08:42:48;;;;;;;1.15;0.88;;;16.60;69.40;;;;;;4967259;28;20049;-77
2023/11/28 08:45:14;;;;;;;0.63;0.60;;;16.50;69.40;;;;;;4965353;28;20055;-77
2023/11/28 08:47:40;;;;;;;0.50;0.50;;;16.50;69.30;;;;;;4967429;28;20401;-77
2023/11/28 08:50:06;;;;;;;0.52;0.50;;;16.50;69.40;;;;;;4983480;28;20141;-77
2023/11/28 08:52:32;;;;;;;0.68;0.50;;;16.50;69.20;;;;;;4947167;28;20101;-77
2023/11/28 08:54:58;;;;;;;0.60;0.50;;;16.50;69.40;;;;;;4962510;28;20303;-77
2023/11/28 08:57:26;;;;;;;0.75;0.70;;;16.50;69.30;;;;;;4965695;28;20047;-77
2023/11/28 08:59:52;;;;;;;0.70;0.50;;;16.50;69.30;;;;;;4982162;28;20046;-78
2023/11/28 09:02:17;;;;;;;0.70;0.55;;;16.50;69.40;;;;;;4983465;28;20069;-77
2023/11/28 09:04:43;;;;;;;0.55;0.55;;;16.50;69.40;;;;;;4950918;28;20378;-77
2023/11/28 09:07:09;;;;;;;0.60;0.60;;;16.50;69.40;;;;;;4963607;28;20062;-77
2023/11/28 09:09:35;;;;;;;0.50;0.50;;;16.50;69.40;;;;;;4950865;28;20066;-76
2023/11/28 09:12:01;;;;;;;0.82;0.70;;;16.50;69.40;;;;;;4963249;28;20130;-77
2023/11/28 09:14:27;;;;;;;0.60;0.60;;;16.50;69.30;;;;;;4964851;28;20062;-77
2023/11/28 09:16:52;;;;;;;0.98;0.57;;;16.50;69.50;;;;;;4965510;28;20118;-78
2023/11/28 09:19:18;;;;;;;1.17;0.50;;;16.50;69.40;;;;;;4963799;28;20054;-76
2023/11/28 09:21:43;;;;;;;0.55;0.55;;;16.60;69.60;;;;;;4965012;28;20042;-77
2023/11/28 09:24:09;;;;;;;0.82;0.60;;;16.50;69.30;;;;;;4966509;28;20126;-77
2023/11/28 09:26:34;;;;;;;1.58;0.80;;;16.60;69.50;;;;;;4967671;28;20051;-77
2023/11/28 09:29:01;;;;;;;0.70;0.70;;;16.60;69.70;;;;;;4966756;28;20062;-77
2023/11/28 09:31:28;;;;;;;0.50;0.50;;;16.60;69.70;;;;;;4966637;28;20521;-77
2023/11/28 09:33:54;;;;;;;0.60;0.60;;;16.60;69.70;;;;;;4966022;28;20053;-77
2023/11/28 09:36:21;;;;;;;0.80;0.60;;;16.60;69.50;;;;;;4966639;28;20035;-76
2023/11/28 09:38:46;;;;;;;0.50;0.50;;;16.60;69.30;;;;;;4966515;28;20058;-76
2023/11/28 09:41:13;;;;;;;0.30;0.30;;;16.70;69.20;;;;;;4967398;28;20421;-77
2023/11/28 09:43:39;;;;;;;0.82;0.80;;;16.70;68.70;;;;;;4968503;28;20512;-76
2023/11/28 09:46:05;;;;;;;1.65;0.52;;;16.70;68.80;;;;;;4964806;28;20138;-76
2023/11/28 09:48:30;;;;;;;0.70;0.70;;;16.70;68.60;;;;;;4964341;28;20043;-76
2023/11/28 09:50:56;;;;;;;0.43;0.43;;;16.80;68.30;;;;;;4965095;28;20077;-77
2023/11/28 09:53:23;;;;;;;0.63;0.63;;;16.80;68.30;;;;;;4965284;28;20041;-76
2023/11/28 09:55:50;;;;;;;0.63;0.63;;;16.80;68.20;;;;;;4965572;28;20046;-76
2023/11/28 09:58:17;;;;;;;0.57;0.57;;;16.80;68.00;;;;;;4948324;28;20046;-76
2023/11/28 10:00:43;;;;;;;0.40;0.38;;;16.90;68.00;;;;;;4958690;28;20039;-76
2023/11/28 10:03:08;;;;;;;0.73;0.68;;;16.90;67.90;;;;;;4962331;28;20039;-76
2023/11/28 10:05:34;;;;;;;0.50;0.50;;;16.90;67.80;;;;;;4966066;28;20579;-76
2023/11/28 10:07:59;;;;;;;2.15;0.80;;;16.90;67.80;;;;;;4966313;28;20043;-76
2023/11/28 10:10:25;;;;;;;0.68;0.57;;;17.00;67.80;;;;;;4950289;28;20232;-76
2023/11/28 10:12:51;;;;;;;0.60;0.60;;;17.00;67.80;;;;;;4968318;28;20053;-76
2023/11/28 10:15:17;;;;;;;0.65;0.65;;;17.00;67.80;;;;;;4964460;28;20137;-76
2023/11/28 10:17:43;;;;;;;0.50;0.50;;;17.00;67.80;;;;;;4965256;28;20201;-76
2023/11/28 10:20:09;;;;;;;0.82;0.70;;;16.90;67.80;;;;;;4963896;28;20445;-76
2023/11/28 10:22:35;;;;;;;0.50;0.50;;;17.00;67.80;;;;;;4966372;28;20047;-76
2023/11/28 10:25:11;;;;;;;0.55;0.55;;;17.00;67.80;;;;;;4965807;28;20047;-77
2023/11/28 10:27:40;;;;;;;1.38;0.50;;;17.00;67.80;;;;;;4963653;28;20409;-76
2023/11/28 10:30:21;;;;;;;0.50;0.40;;;17.00;67.80;;;;;;4965160;28;20046;-77
2023/11/28 10:32:48;;;;;;;0.30;0.30;;;17.00;67.70;;;;;;4964325;28;20174;-76
2023/11/28 10:35:14;;;;;;;0.65;0.47;;;17.00;67.80;;;;;;4965547;28;20047;-76
2023/11/28 10:37:39;;;;;;;0.98;0.60;;;17.00;67.80;;;;;;4965000;28;20054;-76
2023/11/28 10:40:14;;;;;;;0.50;0.50;;;17.00;67.80;;;;;;4965090;28;20042;-76
2023/11/28 10:42:42;;;;;;;;;;;17.00;67.70;;;;;;4965493;28;20438;-76
2023/11/28 10:45:09;;;;;;;0.57;0.57;;;17.00;67.80;;;;;;4963836;28;19918;-77
2023/11/28 10:47:35;;;;;;;0.75;0.50;;;17.00;67.80;;;;;;4962421;28;20043;-77
2023/11/28 10:50:01;;;;;;;0.30;0.30;;;17.00;67.90;;;;;;4929075;28;20091;-77
2023/11/28 10:52:27;;;;;;;0.40;0.40;;;17.00;67.80;;;;;;4965552;28;20043;-76
2023/11/28 10:54:56;;;;;;;1.05;0.40;;;17.10;67.90;;;;;;4966505;28;20035;-77
2023/11/28 10:57:27;;;;;;;0.35;0.30;;;17.00;67.80;;;;;;4961202;28;20027;-77
2023/11/28 10:59:54;;;;;;;0.50;0.50;;;17.00;68.00;;;;;;4968508;28;20039;-77
2023/11/28 11:02:20;;;;;;;1.40;0.32;;;17.00;68.00;;;;;;4961955;28;20039;-76
2023/11/28 11:04:46;;;;;;;0.55;0.55;;;17.00;67.80;;;;;;4963919;28;20173;-76
2023/11/28 11:07:12;;;;;;;1.20;0.40;;;17.00;67.80;;;;;;4960810;28;20064;-77
2023/11/28 11:09:37;;;;;;;0.45;0.45;;;17.10;68.60;;;;;;4965543;28;20514;-76
2023/11/28 11:12:03;;;;;;;0.50;0.50;;;17.10;68.00;;;;;;4965100;28;20481;-77
2023/11/28 11:14:47;;;;;;;1.33;0.40;;;17.00;67.80;;;;;;4967906;28;20046;-77
2023/11/28 11:17:23;;;;;;;0.43;0.35;;;17.10;68.20;;;;;;4965674;28;20583;-76
2023/11/28 11:19:50;;;;;;;0.50;0.50;;;17.10;68.10;;;;;;4968493;28;20058;-77
2023/11/28 11:22:15;;;;;;;1.10;0.70;;;17.10;67.30;;;;;;4965642;28;20047;-77
2023/11/28 11:24:43;;;;;;;0.68;0.68;;;17.10;68.00;;;;;;4966888;28;20049;-77
2023/11/28 11:27:08;;;;;;;0.82;0.60;;;17.10;68.90;;;;;;4966945;28;20125;-77
2023/11/28 11:29:37;;;;;;;1.20;0.70;;;17.10;69.00;;;;;;4951306;28;20643;-77
2023/11/28 11:32:06;;;;;;;1.10;0.60;;;17.10;68.90;;;;;;4968654;28;20051;-78
2023/11/28 11:34:35;;;;;;;3.13;0.82;;;17.10;68.80;;;;;;4966330;28;20054;-76
2023/11/28 11:37:17;;;;;;;0.68;0.47;;;17.20;68.60;;;;;;4964656;28;20046;-76
2023/11/28 11:39:51;;;;;;;0.60;0.60;;;17.10;68.40;;;;;;4617575;28;9999781;-76
2023/11/28 11:42:21;;;;;;;0.40;0.40;;;17.10;68.40;;;;;;4962554;28;20551;-76
2023/11/28 11:44:50;;;;;;;0.43;0.40;;;17.20;68.10;;;;;;4961209;28;20615;-76
2023/11/28 11:47:20;;;;;;;0.30;0.30;;;17.20;68.00;;;;;;4965162;28;20117;-76
2023/11/28 11:49:47;;;;;;;0.65;0.50;;;17.20;67.80;;;;;;4969420;28;20049;-76
2023/11/28 11:52:13;;;;;;;0.50;0.40;;;17.20;67.80;;;;;;4961592;28;20042;-77
2023/11/28 11:54:40;;;;;;;0.73;0.50;;;17.20;68.50;;;;;;4949290;28;20042;-77
2023/11/28 11:57:06;;;;;;;0.30;0.30;;;17.10;67.90;;;;;;4967318;28;20042;-77
2023/11/28 11:59:31;;;;;;;0.43;0.43;;;17.00;68.40;;;;;;4964760;28;20046;-78
2023/11/28 12:01:58;;;;;;;0.30;0.30;;;17.00;68.40;;;;;;4968622;28;20157;-78
2023/11/28 12:04:24;;;;;;;0.68;0.57;;;17.00;68.30;;;;;;4965036;28;20497;-79
2023/11/28 12:07:03;;;;;;;0.85;0.40;;;16.90;68.40;;;;;;4964333;28;20089;-76
2023/11/28 12:09:29;;;;;;;0.35;0.35;;;17.00;68.30;;;;;;4964133;28;20041;-76
2023/11/28 12:11:55;;;;;;;0.40;0.40;;;17.10;68.00;;;;;;4966284;28;20047;-76
2023/11/28 12:14:20;;;;;;;0.50;0.50;;;17.10;67.90;;;;;;4950002;28;20055;-76
2023/11/28 12:16:46;;;;;;;0.40;0.40;;;17.10;68.00;;;;;;4955083;28;20062;-76
2023/11/28 12:19:11;;;;;;;0.50;0.50;;;17.10;68.00;;;;;;4965846;28;20078;-77
2023/11/28 12:21:37;;;;;;;0.25;0.22;;;17.10;68.00;;;;;;4968683;28;20055;-76
2023/11/28 12:24:03;;;;;;;0.30;0.30;;;17.10;68.00;;;;;;4965629;28;20034;-77
2023/11/28 12:26:28;;;;;;;0.60;0.60;;;17.10;67.80;;;;;;4966511;28;20042;-76
2023/11/28 12:28:54;;;;;;;0.20;0.20;;;17.10;68.00;;;;;;4954373;28;20043;-76
2023/11/28 12:31:19;;;;;;;0.35;0.35;;;17.00;67.90;;;;;;4963662;28;20047;-76
2023/11/28 12:33:45;;;;;;;0.40;0.40;;;16.90;68.20;;;;;;4964728;28;20034;-76
2023/11/28 12:36:13;;;;;;;0.25;0.25;;;16.90;68.30;;;;;;4952679;28;20557;-76
2023/11/28 12:38:39;;;;;;;0.20;0.20;;;16.90;68.30;;;;;;4966902;28;20046;-76
2023/11/28 12:41:05;;;;;;;0.32;0.32;;;17.00;68.20;;;;;;4967964;28;20112;-77
2023/11/28 12:43:34;;;;;;;0.30;0.30;;;16.90;68.00;;;;;;4967344;28;20035;-76